首页
METAR-TAF:

METAR-TAF

机场 :

Billy Mitchell Airport

Hatteras, 北卡罗来纳州, 美国

纬度: 35-13-56N, 经度: 075-37-21W, 海拔: 5米

当前天气观测

该预报发布于31分钟前的19:08 UTC
风速15节,风向北转东北,有时为30节阵风,在东转东北之间变化
温度 15°C
湿度 88%
气压 1008 hPa
能見度: 8.0公里
阴天层高于1500英尺
小雨, 轻雾

METAR: KHSE 171908Z AUTO 03015G30KT 360V060 5SM -RA BR OVC015 15/13 A2977 RMK AO2 PK WND 04030/1905 P0000 T01500133

时间: 14:39 (19:39 UTC)


TAF: 丢失

超过4000个机场的气象观测和天气预报(METAR&TAF报告)。

可查询的气象台以黄色和红色小点在地图上表示。

将鼠标移到小点上方,可查看气象台名称。

然后点击查看天气观测和预报。

如需切换地图:点击带黑十字的绿色按钮放大地图;点击带横线的绿色按钮缩小地图;或者点击绿色箭头查看邻近地区的地图。


METAR-TAF: